Deering, AK

9:52 AM AKDT on September 19, 2014 (GMT -0800)
Deering (New) | Change Station
CLOSE
Current Station
Airport
Location: Deering,
Elevation: 16 ft
Nearby Weather Stations

Elev 16 ft 66.07 °N, 162.77 °W | Updated 11 hours ago

Partly Cloudy
Partly Cloudy
39 °F
Feels Like 39 °F
N
19
Wind Variable Wind from NW
Gusts 27 mph

Today
High -- | Low -- °F
--% Chance of Precip.
Yesterday
High -- | Low -- °F
Precip. -- in
8:24 AM 9:03 PM
Waning Crescent, 18% visible
Pressure 29.30 in
Visibility 10.0 miles
Clouds Mostly Cloudy 1100 ft
Dew Point 36 °F
Humidity 86%
Rainfall 0.00 in
Snow Depth 150 in , 109 in , 2 in
UV 0 out of 12
Pollen Not available.
Air Quality Not available.
Flu Activity Not available.
METAR PADE 190555Z 26018KT 10SM BKN011 08/06 A2930 RMK DA 000 TSNO VIA PHONE

More Conditions Fewer Conditions

Pressure 29.30 in
Visibility 10.0 miles
Clouds Mostly Cloudy 1100 ft
Dew Point 36 °F
Humidity 86%
Rainfall 0.00 in
Snow Depth 150 in , 109 in , 2 in
UV 0 out of 12
Pollen Not available.
Air Quality Not available.
Flu Activity Not available.
METAR PADE 190555Z 26018KT 10SM BKN011 08/06 A2930 RMK DA 000 TSNO VIA PHONE

More Conditions Fewer Conditions

10-Day Weather Forecast

Almanac

Astronomy

Sep. 19, 2014 Rise Set
Actual Time 8:24 AM AKDT 9:03 PM AKDT
Civil Twilight 7:32 AM AKDT 9:54 PM AKDT
Nautical Twilight 6:26 AM AKDT 10:59 PM AKDT
Astronomical Twilight 5:05 AM AKDT 12:18 AM AKDT
Moon 2:58 AM AKDT 7:47 PM AKDT
Length of Visible Light 14h 22m
Length of Day
12h 38m
Tomorrow will be 7m 1s shorter.
Waning Crescent, 18% of the Moon is Illuminated
Today
Waning Crescent
Sep 24
New
Oct 1
First Quarter
Oct 8
Full
Oct 15
Last Quarter

Today's Extremes

State Highs State Lows

Community

WunderPhotos

Upload Photos

1,754,668 photos uploaded!

Nearby

Snow Depth

Station Depth Elevation
Nuka Glacier 150 in 1250 ft
Susitna Valley High 109 in 375 ft
Turnagain Pass 2 in 1880 ft
Atigun Pass 2 in 4800 ft
Moraine 0 in 2100 ft

Earthquake Activity

City Distance Mag. Time & Date
No recent earthquake activity has been reported nearby.
Minimum magnitude displayed is 2.5.

Coastal Water Temperatures

Place Temperature
No Stations Reporting

Nearby Weather Stations